createdAt,value
2019-01-13T00:00:15.865Z,6.35
2019-01-13T00:01:16.061Z,6.39
2019-01-13T00:02:15.817Z,6.43
2019-01-13T00:03:15.736Z,6.39
2019-01-13T00:04:15.826Z,6.45
2019-01-13T00:05:15.737Z,6.32
2019-01-13T00:06:15.746Z,6.30
2019-01-13T00:07:15.753Z,6.39
2019-01-13T00:08:15.724Z,6.35
2019-01-13T00:09:15.756Z,6.33
2019-01-13T00:10:15.788Z,6.33
2019-01-13T00:11:15.656Z,6.39
2019-01-13T00:12:15.666Z,6.33
2019-01-13T00:13:15.668Z,6.35
2019-01-13T00:14:15.645Z,6.35
2019-01-13T00:15:15.674Z,6.32
2019-01-13T00:16:15.641Z,6.32
2019-01-13T00:17:18.522Z,6.30
2019-01-13T00:18:15.652Z,6.33
2019-01-13T00:19:15.623Z,6.38
2019-01-13T00:20:15.580Z,6.36
2019-01-13T00:21:15.546Z,6.32
2019-01-13T00:22:16.550Z,6.36
2019-01-13T00:24:47.187Z,6.43
2019-01-13T00:25:47.162Z,6.36
2019-01-13T00:26:47.144Z,6.40
2019-01-13T00:27:47.912Z,6.43
2019-01-13T00:28:46.912Z,6.48
2019-01-13T00:29:46.786Z,6.42
2019-01-13T00:30:46.830Z,6.39
2019-01-13T00:31:46.753Z,6.38
2019-01-13T00:32:46.951Z,6.38
2019-01-13T00:33:46.749Z,6.48
2019-01-13T00:34:46.734Z,6.43
2019-01-13T00:35:46.711Z,6.33
2019-01-13T00:36:48.808Z,6.38
2019-01-13T01:38:53.207Z,6.48
2019-01-13T01:42:18.632Z,6.50
2019-01-13T02:50:10.356Z,6.63
2019-01-13T02:51:10.688Z,6.69
2019-01-13T03:10:00.517Z,6.82
2019-01-13T03:11:02.627Z,6.75
2019-01-13T05:08:44.856Z,7.15
2019-01-13T05:09:44.839Z,7.21
2019-01-13T05:10:44.594Z,7.15
2019-01-13T05:11:44.975Z,7.16
2019-01-13T05:12:45.395Z,7.19
2019-01-13T05:15:03.854Z,7.18
2019-01-13T05:16:03.641Z,7.12
2019-01-13T05:17:03.404Z,7.14
2019-01-13T05:18:04.338Z,7.15
2019-01-13T05:19:03.234Z,7.18
2019-01-13T05:20:03.181Z,7.15
2019-01-13T05:21:03.259Z,7.18
2019-01-13T05:22:03.170Z,7.18
2019-01-13T05:23:03.192Z,7.21
2019-01-13T05:24:03.230Z,7.21
2019-01-13T05:25:03.101Z,7.16
2019-01-13T05:26:03.128Z,7.23
2019-01-13T05:27:03.078Z,7.26
2019-01-13T05:28:03.073Z,7.18
2019-01-13T05:29:03.091Z,7.29
2019-01-13T05:30:03.046Z,7.12
2019-01-13T05:31:03.025Z,7.23
2019-01-13T05:32:03.024Z,7.26
2019-01-13T05:33:03.045Z,7.29
2019-01-13T05:34:03.052Z,7.26
2019-01-13T05:35:03.101Z,7.15
2019-01-13T05:36:02.987Z,7.16
2019-01-13T05:37:02.973Z,7.30
2019-01-13T05:38:03.010Z,7.16
2019-01-13T05:39:02.981Z,7.26
2019-01-13T05:40:02.956Z,7.29
2019-01-13T05:41:02.986Z,7.32
2019-01-13T05:42:02.920Z,7.27
2019-01-13T05:43:02.907Z,7.30
2019-01-13T05:44:02.904Z,7.24
2019-01-13T05:45:02.943Z,7.29
2019-01-13T05:46:02.930Z,7.26
2019-01-13T05:47:02.935Z,7.30
2019-01-13T05:48:02.854Z,7.33
2019-01-13T05:49:02.827Z,7.30
2019-01-13T05:50:02.887Z,7.29
2019-01-13T05:51:02.919Z,7.27
2019-01-13T05:52:02.810Z,7.29
2019-01-13T05:53:02.916Z,7.30
2019-01-13T05:54:02.784Z,7.29
2019-01-13T05:55:02.804Z,7.27
2019-01-13T05:56:02.791Z,7.29
2019-01-13T05:57:02.922Z,7.30
2019-01-13T05:58:02.889Z,7.29
2019-01-13T05:59:02.775Z,7.30
2019-01-13T06:00:02.820Z,7.26
2019-01-13T06:01:02.742Z,7.26
2019-01-13T06:04:58.753Z,7.30
2019-01-13T06:05:46.574Z,7.30
2019-01-13T06:06:46.596Z,7.30
2019-01-13T06:07:46.907Z,7.32
2019-01-13T06:10:24.418Z,7.33
2019-01-13T06:11:24.113Z,7.33
2019-01-13T06:12:24.024Z,7.29
2019-01-13T06:19:17.249Z,7.32
2019-01-13T06:22:06.914Z,7.21
2019-01-13T06:23:06.135Z,7.29
2019-01-13T06:24:07.227Z,7.32
2019-01-13T06:34:48.010Z,7.30
2019-01-13T06:35:46.368Z,7.23
2019-01-13T06:57:26.305Z,7.24
2019-01-13T07:06:30.526Z,7.39
2019-01-13T07:08:53.380Z,7.39
2019-01-13T07:36:30.352Z,7.41
2019-01-13T07:37:27.453Z,7.36
2019-01-13T07:38:26.645Z,7.44
2019-01-13T07:39:26.844Z,7.37
2019-01-13T07:40:27.386Z,7.39
2019-01-13T08:00:38.770Z,7.54
2019-01-13T08:04:41.957Z,7.51
2019-01-13T08:05:46.650Z,7.42
2019-01-13T08:06:42.444Z,7.47
2019-01-13T08:07:41.685Z,7.44
2019-01-13T08:08:41.398Z,7.44
2019-01-13T08:20:56.600Z,7.74
2019-01-13T08:21:57.101Z,7.74
2019-01-13T08:22:56.071Z,7.74
2019-01-13T08:23:55.753Z,7.77
2019-01-13T08:24:55.686Z,7.77
2019-01-13T08:25:55.741Z,7.79
2019-01-13T08:26:55.967Z,7.74
2019-01-13T08:27:55.910Z,7.77
2019-01-13T08:28:55.622Z,7.81
2019-01-13T08:29:55.661Z,7.86
2019-01-13T08:30:55.609Z,7.82
2019-01-13T08:31:55.599Z,7.84
2019-01-13T08:32:55.623Z,7.85
2019-01-13T08:33:55.596Z,7.99
2019-01-13T08:34:55.643Z,7.81
2019-01-13T08:35:55.561Z,7.99
2019-01-13T08:36:55.565Z,7.99
2019-01-13T08:37:55.533Z,7.99
2019-01-13T08:38:55.537Z,7.96
2019-01-13T08:39:55.587Z,7.96
2019-01-13T08:40:55.500Z,7.95
2019-01-13T08:41:56.507Z,7.94
2019-01-13T08:42:55.692Z,7.96
2019-01-13T08:43:55.469Z,7.99
2019-01-13T08:44:55.510Z,7.95
2019-01-13T08:45:55.477Z,7.92
2019-01-13T08:46:55.526Z,7.99
2019-01-13T08:47:55.486Z,7.99
2019-01-13T08:48:55.534Z,7.91
2019-01-13T08:50:07.599Z,7.92
2019-01-13T08:50:55.703Z,7.92
2019-01-13T08:51:55.694Z,8.00
2019-01-13T08:52:55.496Z,7.99
2019-01-13T08:53:55.472Z,7.96
2019-01-13T08:56:09.602Z,8.03
2019-01-13T08:57:09.379Z,7.96
2019-01-13T08:58:09.163Z,7.92
2019-01-13T08:59:09.194Z,8.02
2019-01-13T09:00:10.899Z,7.94
2019-01-13T09:01:09.038Z,7.95
2019-01-13T09:02:08.948Z,8.04
2019-01-13T09:03:09.022Z,7.92
2019-01-13T09:04:09.012Z,8.04
2019-01-13T09:05:08.933Z,8.06
2019-01-13T09:06:09.106Z,8.00
2019-01-13T09:07:08.996Z,8.06
2019-01-13T09:08:08.990Z,8.06
2019-01-13T09:09:08.888Z,8.13
2019-01-13T09:10:08.859Z,8.13
2019-01-13T09:11:08.862Z,8.02
2019-01-13T09:12:08.881Z,8.12
2019-01-13T09:13:08.931Z,8.04
2019-01-13T09:14:08.822Z,8.09
2019-01-13T09:16:25.533Z,8.12
2019-01-13T09:17:25.124Z,8.06
2019-01-13T09:18:25.052Z,8.10
2019-01-13T09:19:25.412Z,8.04
2019-01-13T09:20:24.947Z,8.12
2019-01-13T09:21:24.924Z,8.18
2019-01-13T09:22:25.232Z,8.12
2019-01-13T09:23:25.709Z,8.14
2019-01-13T09:24:24.883Z,8.20
2019-01-13T09:25:24.941Z,8.20
2019-01-13T09:26:24.864Z,8.24
2019-01-13T09:27:24.857Z,8.24
2019-01-13T09:28:25.251Z,8.24
2019-01-13T09:29:24.861Z,8.27
2019-01-13T09:30:34.706Z,8.24
2019-01-13T09:31:25.222Z,8.28
2019-01-13T09:32:24.901Z,8.28
2019-01-13T09:33:25.030Z,8.24
2019-01-13T09:34:24.846Z,8.29
2019-01-13T09:35:24.824Z,8.36
2019-01-13T09:36:24.765Z,8.34
2019-01-13T09:41:18.522Z,8.37
2019-01-13T09:42:33.887Z,8.34
2019-01-13T09:43:18.414Z,8.40
2019-01-13T09:44:20.377Z,8.39
2019-01-13T09:50:55.038Z,8.50
2019-01-13T09:53:55.699Z,8.57
2019-01-13T09:57:42.144Z,8.55
2019-01-13T10:00:05.327Z,8.61
2019-01-13T10:01:04.927Z,8.70
2019-01-13T10:02:04.901Z,8.61
2019-01-13T10:03:04.928Z,8.55
2019-01-13T10:04:04.803Z,8.70
2019-01-13T10:05:04.775Z,8.57
2019-01-13T10:06:04.770Z,8.60
2019-01-13T10:07:04.807Z,8.68
2019-01-13T10:08:04.984Z,8.61
2019-01-13T10:09:04.705Z,8.60
2019-01-13T10:10:04.787Z,8.64
2019-01-13T10:11:04.695Z,8.65
2019-01-13T10:12:04.730Z,8.63
2019-01-13T10:13:04.701Z,8.64
2019-01-13T10:14:04.658Z,8.61
2019-01-13T10:15:04.644Z,8.64
2019-01-13T10:16:04.834Z,8.64
2019-01-13T10:17:04.613Z,8.60
2019-01-13T10:18:04.652Z,8.60
2019-01-13T10:19:04.639Z,8.73
2019-01-13T10:20:04.583Z,8.64
2019-01-13T10:21:04.570Z,8.63
2019-01-13T10:22:04.601Z,8.76
2019-01-13T10:23:04.610Z,8.73
2019-01-13T10:24:04.539Z,8.71
2019-01-13T10:25:04.533Z,8.73
2019-01-13T10:26:06.783Z,8.73
2019-01-13T10:28:41.495Z,8.76
2019-01-13T10:29:37.600Z,8.76
2019-01-13T10:30:37.847Z,8.71
2019-01-13T10:32:55.161Z,8.73
2019-01-13T10:33:53.793Z,8.70
2019-01-13T10:34:53.710Z,8.71
2019-01-13T10:35:54.330Z,8.65
2019-01-13T10:37:55.989Z,8.75
2019-01-13T10:38:55.930Z,8.71
2019-01-13T10:39:55.479Z,8.71
2019-01-13T10:40:57.139Z,8.64
2019-01-13T10:42:05.494Z,8.73
2019-01-13T10:42:57.050Z,8.75
2019-01-13T10:43:56.087Z,8.73
2019-01-13T10:44:55.414Z,8.73
2019-01-13T10:45:55.134Z,8.67
2019-01-13T10:46:55.275Z,8.70
2019-01-13T10:47:55.122Z,8.76
2019-01-13T10:48:56.999Z,8.80
2019-01-13T10:49:55.157Z,8.75
2019-01-13T10:50:56.005Z,8.76
2019-01-13T10:51:55.076Z,8.73
2019-01-13T10:52:55.117Z,8.71
2019-01-13T10:53:55.070Z,8.76
2019-01-13T10:54:55.279Z,8.76
2019-01-13T10:55:55.630Z,8.68
2019-01-13T10:56:55.039Z,8.75
2019-01-13T10:57:55.106Z,8.78
2019-01-13T10:58:55.012Z,8.70
2019-01-13T10:59:55.014Z,8.80
2019-01-13T11:01:15.993Z,8.73
2019-01-13T11:01:54.966Z,8.80
2019-01-13T11:03:01.716Z,8.80
2019-01-13T11:03:56.694Z,8.80
2019-01-13T11:04:59.964Z,8.71
2019-01-13T11:05:55.046Z,8.83
2019-01-13T11:06:57.984Z,8.76
2019-01-13T11:07:57.425Z,8.80
2019-01-13T11:08:55.012Z,8.78
2019-01-13T11:11:09.438Z,8.82
2019-01-13T11:12:08.511Z,8.85
2019-01-13T11:13:08.807Z,8.86
2019-01-13T11:15:22.081Z,8.82
2019-01-13T11:17:34.591Z,8.83
2019-01-13T11:18:35.243Z,8.83
2019-01-13T11:19:44.637Z,8.80
2019-01-13T11:20:32.934Z,8.83
2019-01-13T11:21:35.293Z,8.70
2019-01-13T11:25:36.828Z,8.82
2019-01-13T11:26:51.306Z,8.85
2019-01-13T11:30:19.690Z,8.75
2019-01-13T11:31:22.469Z,8.88
2019-01-13T11:33:47.061Z,8.83
2019-01-13T11:34:46.741Z,8.78
2019-01-13T11:35:47.614Z,8.78
2019-01-13T11:36:48.105Z,8.70
2019-01-13T11:37:48.409Z,8.70
2019-01-13T11:38:46.506Z,8.78
2019-01-13T11:41:07.821Z,8.86
2019-01-13T11:42:07.517Z,8.79
2019-01-13T11:43:07.430Z,8.80
2019-01-13T11:44:07.658Z,8.79
2019-01-13T11:45:07.522Z,8.78
2019-01-13T11:46:07.522Z,8.79
2019-01-13T11:47:07.434Z,8.78
2019-01-13T11:48:07.894Z,8.83
2019-01-13T11:49:07.325Z,8.78
2019-01-13T11:50:07.276Z,8.76
2019-01-13T11:51:07.379Z,8.76
2019-01-13T11:52:07.349Z,8.78
2019-01-13T11:53:07.270Z,8.79
2019-01-13T11:54:07.260Z,8.80
2019-01-13T11:55:07.369Z,8.68
2019-01-13T11:56:07.205Z,8.73
2019-01-13T11:57:07.201Z,8.73
2019-01-13T11:58:07.234Z,8.65
2019-01-13T11:59:07.195Z,8.75
2019-01-13T12:00:07.199Z,8.76
2019-01-13T12:01:07.154Z,8.78
2019-01-13T12:02:07.142Z,8.83
2019-01-13T12:03:07.616Z,8.80
2019-01-13T12:04:07.188Z,8.78
2019-01-13T12:07:07.518Z,8.82
2019-01-13T12:10:52.072Z,8.86
2019-01-13T12:11:51.446Z,8.86
2019-01-13T12:12:51.846Z,8.82
2019-01-13T12:13:51.503Z,8.83
2019-01-13T12:14:51.407Z,8.85
2019-01-13T12:15:51.278Z,8.85
2019-01-13T12:18:44.419Z,8.80
2019-01-13T12:19:43.509Z,8.88
2019-01-13T12:20:46.115Z,8.83
2019-01-13T12:21:43.525Z,8.80
2019-01-13T12:25:21.848Z,8.75
2019-01-13T12:26:22.343Z,8.86
2019-01-13T12:27:21.303Z,8.88
2019-01-13T12:28:22.208Z,8.80
2019-01-13T12:29:21.052Z,8.78
2019-01-13T12:30:21.069Z,8.78
2019-01-13T12:31:21.207Z,8.83
2019-01-13T12:32:23.004Z,8.89
2019-01-13T12:33:24.683Z,8.76
2019-01-13T12:34:21.099Z,8.78
2019-01-13T12:35:21.945Z,8.73
2019-01-13T12:36:20.963Z,8.76
2019-01-13T12:37:20.909Z,8.83
2019-01-13T12:38:20.905Z,8.80
2019-01-13T12:39:20.893Z,8.78
2019-01-13T12:40:21.046Z,8.76
2019-01-13T12:41:20.861Z,8.78
2019-01-13T12:42:25.521Z,8.80
2019-01-13T12:44:38.426Z,8.78
2019-01-13T12:45:38.497Z,8.85
2019-01-13T12:47:58.951Z,8.76
2019-01-13T12:48:59.154Z,8.71
2019-01-13T12:55:30.142Z,8.73
2019-01-13T12:56:17.073Z,8.73
2019-01-13T12:57:19.182Z,8.78
2019-01-13T12:58:16.988Z,8.80
2019-01-13T12:59:18.605Z,8.73
2019-01-13T13:00:17.079Z,8.65
2019-01-13T13:02:37.646Z,8.75
2019-01-13T13:12:19.507Z,8.65
2019-01-13T13:16:10.319Z,8.71
2019-01-13T13:21:45.884Z,8.70
2019-01-13T13:24:05.466Z,8.68
2019-01-13T13:25:05.167Z,8.68
2019-01-13T13:26:05.064Z,8.71
2019-01-13T13:29:42.886Z,8.70
2019-01-13T13:30:42.462Z,8.71
2019-01-13T13:33:19.675Z,8.79
2019-01-13T13:34:16.498Z,8.78
2019-01-13T13:35:18.290Z,8.78
2019-01-13T13:36:16.445Z,8.78
2019-01-13T13:37:16.306Z,8.70
2019-01-13T13:38:16.333Z,8.73
2019-01-13T13:39:27.230Z,8.73
2019-01-13T13:40:16.771Z,8.68
2019-01-13T13:41:17.584Z,8.68
2019-01-13T13:42:18.107Z,8.80
2019-01-13T13:43:16.257Z,8.75
2019-01-13T13:44:16.240Z,8.75
2019-01-13T13:45:16.356Z,8.75
2019-01-13T13:46:16.652Z,8.78
2019-01-13T13:47:16.194Z,8.71
2019-01-13T13:49:43.097Z,8.78
2019-01-13T13:50:42.851Z,8.73
2019-01-13T13:51:42.751Z,8.83
2019-01-13T13:52:42.668Z,8.76
2019-01-13T13:53:42.548Z,8.70
2019-01-13T13:54:42.554Z,8.71
2019-01-13T13:55:44.208Z,8.76
2019-01-13T13:56:42.560Z,8.73
2019-01-13T13:57:42.574Z,8.70
2019-01-13T13:58:42.524Z,8.64
2019-01-13T13:59:43.195Z,8.76
2019-01-13T14:02:15.475Z,8.76
2019-01-13T14:04:26.071Z,8.75
2019-01-13T14:05:26.072Z,8.75
2019-01-13T14:06:26.628Z,8.75
2019-01-13T14:07:25.491Z,8.76
2019-01-13T14:08:25.574Z,8.71
2019-01-13T14:09:26.201Z,8.76
2019-01-13T14:10:26.180Z,8.73
2019-01-13T14:11:26.396Z,8.75
2019-01-13T14:12:25.443Z,8.73
2019-01-13T14:13:25.379Z,8.67
2019-01-13T14:14:28.463Z,8.68
2019-01-13T14:15:25.345Z,8.78
2019-01-13T14:16:25.357Z,8.70
2019-01-13T14:17:27.845Z,8.67
2019-01-13T14:18:25.309Z,8.76
2019-01-13T14:19:26.132Z,8.71
2019-01-13T14:20:25.320Z,8.65
2019-01-13T14:21:26.240Z,8.75
2019-01-13T14:23:45.539Z,8.76
2019-01-13T14:24:45.643Z,8.61
2019-01-13T14:25:45.495Z,8.64
2019-01-13T14:26:45.624Z,8.64
2019-01-13T14:27:45.501Z,8.64
2019-01-13T14:28:46.364Z,8.64
2019-01-13T14:29:45.361Z,8.67
2019-01-13T14:30:45.407Z,8.58
2019-01-13T14:31:55.386Z,8.68
2019-01-13T14:32:45.720Z,8.70
2019-01-13T14:33:52.565Z,8.65
2019-01-13T14:34:46.486Z,8.57
2019-01-13T14:35:45.741Z,8.58
2019-01-13T14:36:45.418Z,8.63
2019-01-13T14:37:47.319Z,8.67
2019-01-13T14:38:45.258Z,8.64
2019-01-13T14:39:48.803Z,8.61
2019-01-13T14:40:45.732Z,8.65
2019-01-13T14:45:09.254Z,8.63
2019-01-13T14:46:09.290Z,8.64
2019-01-13T14:47:09.647Z,8.63
2019-01-13T14:48:09.181Z,8.63
2019-01-13T14:49:09.555Z,8.64
2019-01-13T14:50:09.076Z,8.63
2019-01-13T14:54:11.207Z,8.65
2019-01-13T14:57:43.093Z,8.63
2019-01-13T14:58:41.955Z,8.60
2019-01-13T14:59:41.874Z,8.60
2019-01-13T15:00:42.933Z,8.63
2019-01-13T15:01:41.922Z,8.67
2019-01-13T15:02:42.943Z,8.64
2019-01-13T15:03:41.780Z,8.76
2019-01-13T15:04:41.810Z,8.60
2019-01-13T15:05:41.790Z,8.65
2019-01-13T15:06:41.775Z,8.63
2019-01-13T15:07:41.835Z,8.65
2019-01-13T15:08:41.773Z,8.68
2019-01-13T15:09:41.983Z,8.63
2019-01-13T15:10:42.404Z,8.61
2019-01-13T15:13:59.038Z,8.63
2019-01-13T15:14:57.092Z,8.64
2019-01-13T15:21:04.496Z,8.63
2019-01-13T15:22:04.315Z,8.64
2019-01-13T15:23:04.945Z,8.65
2019-01-13T15:24:19.059Z,8.64
2019-01-13T15:25:04.198Z,8.63
2019-01-13T15:26:06.307Z,8.64
2019-01-13T15:27:04.279Z,8.73
2019-01-13T15:28:04.139Z,8.63
2019-01-13T15:29:04.248Z,8.54
2019-01-13T15:31:33.885Z,8.63
2019-01-13T15:35:55.617Z,8.63
2019-01-13T15:40:47.581Z,8.63
2019-01-13T15:41:44.273Z,8.61
2019-01-13T15:44:07.573Z,8.64
2019-01-13T15:45:07.989Z,8.67
2019-01-13T15:46:07.283Z,8.64
2019-01-13T15:47:10.455Z,8.61
2019-01-13T15:48:06.937Z,8.75
2019-01-13T15:49:08.486Z,8.76
2019-01-13T15:50:06.944Z,8.73
2019-01-13T15:51:07.085Z,8.73
2019-01-13T15:52:06.898Z,8.78
2019-01-13T15:53:07.545Z,8.68
2019-01-13T15:54:07.432Z,8.82
2019-01-13T15:55:06.866Z,8.70
2019-01-13T15:56:06.862Z,8.70
2019-01-13T15:57:06.840Z,8.73
2019-01-13T15:58:06.890Z,8.75
2019-01-13T15:59:06.945Z,8.76
2019-01-13T16:00:06.805Z,8.78
2019-01-13T16:01:06.826Z,8.68
2019-01-13T16:02:06.777Z,8.83
2019-01-13T16:03:06.773Z,8.68
2019-01-13T16:04:06.787Z,8.83
2019-01-13T16:05:07.127Z,8.75
2019-01-13T16:06:07.585Z,8.85
2019-01-13T16:07:17.122Z,8.68
2019-01-13T16:08:06.885Z,8.75
2019-01-13T16:09:06.897Z,8.68
2019-01-13T16:10:06.826Z,8.75
2019-01-13T16:11:06.937Z,8.71
2019-01-13T16:12:06.809Z,8.73
2019-01-13T16:13:08.462Z,8.76
2019-01-13T16:15:46.842Z,8.83
2019-01-13T16:20:31.901Z,8.79
2019-01-13T16:24:25.793Z,8.76
2019-01-13T16:25:25.589Z,8.78
2019-01-13T16:26:25.579Z,8.65
2019-01-13T16:27:25.329Z,8.78
2019-01-13T16:28:25.303Z,8.78
2019-01-13T16:33:10.515Z,8.80
2019-01-13T16:34:09.344Z,8.63
2019-01-13T16:35:13.952Z,8.78
2019-01-13T16:36:09.033Z,8.67
2019-01-13T16:37:09.005Z,8.75
2019-01-13T16:42:16.022Z,8.55
2019-01-13T16:43:15.790Z,8.64
2019-01-13T16:44:15.724Z,8.64
2019-01-13T16:45:15.449Z,8.64
2019-01-13T16:46:15.897Z,8.70
2019-01-13T16:47:15.368Z,8.67
2019-01-13T16:48:15.370Z,8.67
2019-01-13T16:49:15.761Z,8.65
2019-01-13T16:50:16.193Z,8.64
2019-01-13T16:51:15.323Z,8.64
2019-01-13T16:54:39.742Z,8.73
2019-01-13T16:55:39.001Z,8.73
2019-01-13T16:56:38.615Z,8.73
2019-01-13T16:59:03.344Z,8.76
2019-01-13T17:00:14.561Z,8.61
2019-01-13T17:01:02.725Z,8.78
2019-01-13T17:02:07.620Z,8.73
2019-01-13T17:03:02.525Z,8.68
2019-01-13T17:04:02.539Z,8.73
2019-01-13T17:05:02.729Z,8.63
2019-01-13T17:06:03.246Z,8.70
2019-01-13T17:07:03.297Z,8.64
2019-01-13T17:08:03.582Z,8.61
2019-01-13T17:09:02.399Z,8.67
2019-01-13T17:10:02.411Z,8.64
2019-01-13T17:11:02.616Z,8.63
2019-01-13T17:12:02.381Z,8.64
2019-01-13T17:20:04.770Z,8.71
2019-01-13T17:21:04.688Z,8.76
2019-01-13T17:22:04.460Z,8.65
2019-01-13T17:23:04.845Z,8.73
2019-01-13T17:24:05.422Z,8.67
2019-01-13T17:31:08.673Z,8.64
2019-01-13T17:32:09.761Z,8.73
2019-01-13T17:33:19.701Z,8.64
2019-01-13T17:34:10.529Z,8.65
2019-01-13T17:40:28.602Z,8.61
2019-01-13T17:41:27.030Z,8.47
2019-01-13T17:42:27.188Z,8.50
2019-01-13T17:43:26.926Z,8.58
2019-01-13T17:44:27.208Z,8.55
2019-01-13T17:45:26.839Z,8.50
2019-01-13T17:46:27.440Z,8.43
2019-01-13T17:47:28.432Z,8.39
2019-01-13T17:48:28.422Z,8.40
2019-01-13T17:49:26.844Z,8.36
2019-01-13T17:50:26.848Z,8.37
2019-01-13T17:51:27.416Z,8.37
2019-01-13T17:52:26.763Z,8.28
2019-01-13T17:53:26.759Z,8.25
2019-01-13T17:54:26.840Z,8.29
2019-01-13T17:55:26.770Z,8.31
2019-01-13T17:56:26.735Z,8.25
2019-01-13T17:57:26.735Z,8.20
2019-01-13T17:58:26.704Z,8.22
2019-01-13T17:59:26.809Z,8.20
2019-01-13T18:00:28.485Z,8.20
2019-01-13T18:01:26.685Z,8.17
2019-01-13T18:02:26.652Z,8.20
2019-01-13T18:03:27.425Z,8.12
2019-01-13T18:04:27.043Z,8.10
2019-01-13T18:06:44.291Z,8.12
2019-01-13T18:07:43.748Z,8.02
2019-01-13T18:08:42.995Z,8.04
2019-01-13T18:09:43.124Z,8.07
2019-01-13T18:10:42.921Z,8.02
2019-01-13T18:11:43.063Z,8.04
2019-01-13T18:12:43.025Z,8.04
2019-01-13T18:13:42.863Z,8.02
2019-01-13T18:14:42.853Z,8.04
2019-01-13T18:15:42.855Z,8.07
2019-01-13T18:16:42.942Z,8.07
2019-01-13T18:17:43.602Z,8.07
2019-01-13T18:18:43.023Z,8.02
2019-01-13T18:21:00.249Z,8.06
2019-01-13T18:21:59.438Z,8.12
2019-01-13T18:22:59.066Z,8.07
2019-01-13T18:23:59.150Z,8.04
2019-01-13T18:24:59.002Z,8.06
2019-01-13T18:25:58.947Z,8.06
2019-01-13T18:26:58.934Z,8.04
2019-01-13T18:27:58.937Z,8.07
2019-01-13T18:28:58.906Z,7.95
2019-01-13T18:29:58.964Z,7.92
2019-01-13T18:32:17.228Z,8.07
2019-01-13T18:34:50.332Z,8.06
2019-01-13T18:35:47.631Z,8.04
2019-01-13T18:36:48.073Z,8.03
2019-01-13T18:37:47.461Z,8.03
2019-01-13T18:38:47.455Z,8.09
2019-01-13T18:42:16.068Z,8.09
2019-01-13T18:43:14.593Z,8.02
2019-01-13T18:44:14.891Z,8.13
2019-01-13T18:46:43.283Z,8.13
2019-01-13T18:47:42.891Z,8.06
2019-01-13T18:48:43.457Z,8.04
2019-01-13T18:49:42.689Z,8.02
2019-01-13T18:50:42.682Z,7.95
2019-01-13T18:51:42.640Z,7.92
2019-01-13T18:52:42.640Z,7.92
2019-01-13T18:53:42.601Z,7.96
2019-01-13T18:54:42.937Z,8.03
2019-01-13T18:55:42.581Z,8.04
2019-01-13T18:56:42.650Z,8.09
2019-01-13T18:57:43.475Z,8.00
2019-01-13T18:58:43.466Z,7.94
2019-01-13T18:59:42.561Z,7.99
2019-01-13T19:00:42.554Z,7.95
2019-01-13T19:01:42.612Z,7.96
2019-01-13T19:02:42.731Z,8.02
2019-01-13T19:03:42.487Z,7.95
2019-01-13T19:04:42.531Z,7.94
2019-01-13T19:05:42.510Z,7.94
2019-01-13T19:06:42.452Z,8.02
2019-01-13T19:07:42.920Z,8.00
2019-01-13T19:08:42.446Z,7.96
2019-01-13T19:10:53.805Z,8.00
2019-01-13T19:11:52.617Z,8.03
2019-01-13T19:12:52.747Z,7.92
2019-01-13T19:13:53.207Z,7.99
2019-01-13T19:14:52.518Z,7.92
2019-01-13T19:15:52.629Z,7.92
2019-01-13T19:16:52.505Z,8.02
2019-01-13T19:17:52.500Z,7.91
2019-01-13T19:20:17.233Z,7.89
2019-01-13T19:21:16.728Z,8.00
2019-01-13T19:22:17.861Z,7.84
2019-01-13T19:23:16.499Z,7.91
2019-01-13T19:29:29.631Z,7.88
2019-01-13T19:30:29.411Z,7.81
2019-01-13T19:36:44.780Z,7.92
2019-01-13T19:37:44.879Z,7.91
2019-01-13T19:38:44.127Z,7.89
2019-01-13T19:39:43.747Z,7.81
2019-01-13T19:40:43.879Z,7.86
2019-01-13T19:41:43.735Z,7.79
2019-01-13T19:42:43.777Z,7.85
2019-01-13T19:45:04.859Z,7.77
2019-01-13T19:46:03.948Z,7.82
2019-01-13T19:47:03.895Z,7.76
2019-01-13T20:35:33.886Z,7.48
2019-01-13T20:36:33.610Z,7.48
2019-01-13T20:37:33.673Z,7.50
2019-01-13T20:38:34.843Z,7.42
2019-01-13T20:39:33.472Z,7.47
2019-01-13T20:40:33.504Z,7.52
2019-01-13T20:41:33.398Z,7.62
2019-01-13T20:42:33.300Z,7.62
2019-01-13T20:43:33.334Z,7.52
2019-01-13T20:44:33.274Z,7.50
2019-01-13T20:45:33.385Z,7.50
2019-01-13T20:58:35.317Z,7.48
2019-01-13T21:01:43.205Z,7.52
2019-01-13T21:02:42.602Z,7.36
2019-01-13T21:03:42.933Z,7.51
2019-01-13T21:04:43.054Z,7.51
2019-01-13T21:05:51.704Z,7.50
2019-01-13T21:06:44.148Z,7.45
2019-01-13T21:07:48.106Z,7.50
2019-01-13T21:12:04.695Z,7.51
2019-01-13T21:13:04.815Z,7.50
2019-01-13T21:14:04.735Z,7.50
2019-01-13T21:15:04.632Z,7.57
2019-01-13T21:16:04.848Z,7.60
2019-01-13T21:17:04.582Z,7.60
2019-01-13T21:18:04.576Z,7.47
2019-01-13T21:19:05.249Z,7.47
2019-01-13T21:20:04.549Z,7.47
2019-01-13T21:21:04.563Z,7.45
2019-01-13T21:22:05.173Z,7.48
2019-01-13T21:23:04.535Z,7.48
2019-01-13T21:24:05.168Z,7.44
2019-01-13T21:25:05.517Z,7.50
2019-01-13T21:26:04.495Z,7.48
2019-01-13T21:27:04.500Z,7.33
2019-01-13T21:28:04.539Z,7.41
2019-01-13T21:29:04.496Z,7.41
2019-01-13T21:30:04.474Z,7.34
2019-01-13T21:31:04.527Z,7.23
2019-01-13T21:32:04.482Z,7.29
2019-01-13T21:33:04.440Z,7.27
2019-01-13T21:34:04.675Z,7.19
2019-01-13T21:35:04.463Z,7.19
2019-01-13T21:36:04.380Z,7.14
2019-01-13T21:37:04.419Z,7.12
2019-01-13T21:38:04.394Z,7.14
2019-01-13T21:39:04.374Z,7.15
2019-01-13T21:40:04.390Z,7.12
2019-01-13T21:41:04.378Z,7.07
2019-01-13T21:42:04.308Z,6.94
2019-01-13T21:43:04.300Z,7.00
2019-01-13T21:44:04.432Z,7.00
2019-01-13T21:45:06.282Z,6.96
2019-01-13T21:46:04.836Z,6.96
2019-01-13T21:47:04.404Z,6.99
2019-01-13T21:48:04.258Z,6.97
2019-01-13T21:49:06.245Z,7.00
2019-01-13T21:50:04.238Z,6.97
2019-01-13T21:51:04.239Z,7.01
2019-01-13T21:52:05.287Z,7.01
2019-01-13T21:53:04.272Z,7.08
2019-01-13T21:54:10.849Z,7.11
2019-01-13T21:56:18.681Z,7.29
2019-01-13T21:57:24.862Z,7.24
2019-01-13T21:58:17.758Z,7.33
2019-01-13T21:59:16.890Z,7.33
2019-01-13T22:00:20.158Z,7.36
2019-01-13T22:01:17.011Z,7.24
2019-01-13T22:02:16.941Z,7.34
2019-01-13T22:03:16.874Z,7.23
2019-01-13T22:04:16.852Z,7.30
2019-01-13T22:05:16.819Z,7.26
2019-01-13T22:06:17.646Z,7.27
2019-01-13T22:07:16.829Z,7.26
2019-01-13T22:08:16.792Z,7.26
2019-01-13T22:09:16.776Z,7.26
2019-01-13T22:10:16.789Z,7.30
2019-01-13T22:11:16.763Z,7.23
2019-01-13T22:12:16.738Z,7.26
2019-01-13T22:13:17.248Z,7.16
2019-01-13T22:14:16.722Z,7.14
2019-01-13T22:15:16.707Z,7.12
2019-01-13T22:16:16.820Z,7.11
2019-01-13T22:17:16.699Z,7.00
2019-01-13T22:18:16.683Z,7.04
2019-01-13T22:19:16.703Z,7.07
2019-01-13T22:20:16.659Z,7.07
2019-01-13T22:21:16.725Z,7.08
2019-01-13T22:22:16.634Z,7.08
2019-01-13T22:23:17.162Z,7.11
2019-01-13T22:24:16.838Z,7.07
2019-01-13T22:25:16.655Z,7.00
2019-01-13T22:26:16.612Z,7.01
2019-01-13T22:27:16.580Z,6.96
2019-01-13T22:28:16.572Z,7.00
2019-01-13T22:29:16.654Z,7.09
2019-01-13T22:30:16.661Z,6.96
2019-01-13T22:31:22.264Z,6.91
2019-01-13T22:32:17.642Z,6.94
2019-01-13T22:33:17.276Z,6.91
2019-01-13T22:34:16.538Z,7.00
2019-01-13T22:35:16.845Z,7.01
2019-01-13T22:36:17.233Z,6.90
2019-01-13T22:37:16.484Z,6.89
2019-01-13T22:38:16.486Z,6.97
2019-01-13T22:39:16.486Z,6.86
2019-01-13T22:40:16.588Z,6.89
2019-01-13T22:41:16.447Z,6.89
2019-01-13T22:42:16.462Z,6.90
2019-01-13T22:43:16.406Z,6.94
2019-01-13T22:44:16.397Z,6.87
2019-01-13T22:45:16.390Z,6.90
2019-01-13T22:46:16.390Z,6.83
2019-01-13T22:47:17.552Z,6.91
2019-01-13T22:49:44.625Z,6.87
2019-01-13T22:50:43.876Z,6.89
2019-01-13T22:51:44.536Z,6.76
2019-01-13T22:52:44.765Z,6.89
2019-01-13T22:53:43.699Z,6.81
2019-01-13T22:54:43.606Z,6.90
2019-01-13T22:55:43.819Z,6.89
2019-01-13T22:56:43.602Z,6.78
2019-01-13T22:57:44.400Z,6.75
2019-01-13T23:00:37.220Z,6.91
2019-01-13T23:01:41.845Z,6.89
2019-01-13T23:02:37.676Z,6.73
2019-01-13T23:03:36.589Z,6.83
2019-01-13T23:04:49.628Z,6.79
2019-01-13T23:05:36.571Z,6.72
2019-01-13T23:06:36.653Z,6.71
2019-01-13T23:07:36.638Z,6.75
2019-01-13T23:08:36.590Z,6.78
2019-01-13T23:09:36.627Z,6.89
2019-01-13T23:10:36.500Z,6.79
2019-01-13T23:11:36.508Z,6.79
2019-01-13T23:13:53.209Z,6.81
2019-01-13T23:14:52.724Z,6.86
2019-01-13T23:15:52.748Z,6.86
2019-01-13T23:16:52.807Z,6.78
2019-01-13T23:17:52.780Z,6.89
2019-01-13T23:18:52.589Z,6.93
2019-01-13T23:19:52.577Z,6.87
2019-01-13T23:20:53.680Z,6.90
2019-01-13T23:22:10.877Z,6.90
2019-01-13T23:22:52.823Z,6.91
2019-01-13T23:23:53.413Z,6.86
2019-01-13T23:24:52.709Z,6.91
2019-01-13T23:28:10.921Z,6.87
2019-01-13T23:29:10.844Z,6.83
2019-01-13T23:31:22.977Z,6.87
2019-01-13T23:32:30.710Z,6.86
2019-01-13T23:33:22.282Z,6.93
2019-01-13T23:34:22.105Z,6.91
2019-01-13T23:35:23.238Z,6.87
2019-01-13T23:36:26.705Z,6.86
2019-01-13T23:38:46.371Z,6.87
2019-01-13T23:39:45.821Z,6.91
2019-01-13T23:40:45.826Z,6.87
2019-01-13T23:41:45.839Z,6.87